Latest Weather Observations for Hamilton

IDV60801

Issued at 12:05 am EDT Sunday 2 November 2014 (issued every 30 minutes, with the page automatically refreshed every 10 minutes)

About weather observations | Map of weather stations | Latest weather observations for VIC | Other Formats
Station Details ID: 090173 Name: HAMILTON AIRPORT Lat: -37.65 Lon: 142.06 Height: 241.1 m
Data from the previous 72 hours. | See also: Recent months at Hamilton
Date/Time
EDT
Temp
°C
App
Temp
°C
Dew
Point
Rel
Hum
%
Delta-T
°C
Wind Press
QNH
hPa
Press
MSL
hPa
Rain
since 9 am
mm
Dir
 
Spd
km/h
Gust
km/h
Spd
kts
Gust
kts
02/12:00am 5.5 1.8 4.6 94 0.4 WNW 13 19 7 10 1018.6 1018.4 0.0
 
Date/Time
EDT
Temp
°C
App
Temp
°C
Dew
Point
Rel
Hum
%
Delta-T
°C
Wind Press
QNH
hPa
Press
MSL
hPa
Rain
since 9 am
mm
Dir
 
Spd
km/h
Gust
km/h
Spd
kts
Gust
kts
01/11:30pm 5.8 1.7 4.6 92 0.5 WNW 15 17 8 9 1018.5 1018.3 0.0
01/11:00pm 6.9 2.3 5.4 90 0.7 W 19 30 10 16 1018.2 1018.0 0.0
01/10:30pm 6.8 2.9 5.3 90 0.7 W 15 20 8 11 1018.4 1018.2 0.0
01/10:00pm 6.6 2.6 4.9 89 0.8 WNW 15 24 8 13 1018.0 1017.8 0.0
01/09:30pm 6.9 2.5 4.9 87 0.9 W 17 20 9 11 1017.6 1017.4 0.0
01/09:00pm 6.9 2.5 4.6 85 1.0 W 17 24 9 13 1017.4 1017.2 0.0
01/08:30pm 7.0 2.0 4.5 84 1.1 W 20 28 11 15 1016.8 1016.5 0.0
01/08:00pm 7.5 1.9 5.5 87 0.9 WSW 24 35 13 19 1016.4 1016.1 0.0
01/07:30pm 9.2 1.3 4.2 71 2.2 WSW 35 54 19 29 1015.7 1015.4 0.0
01/07:29pm 9.5 1.9 4.1 69 2.4 WSW 33 54 18 29 1015.6 1015.3 0.0
01/07:00pm 9.9 1.9 3.9 66 2.7 WSW 35 48 19 26 1014.9 1014.7 0.0
01/06:30pm 11.2 3.1 3.5 59 3.4 WSW 35 48 19 26 1014.4 1014.2 0.0
01/06:00pm 11.2 3.7 4.4 63 3.1 WSW 33 43 18 23 1014.1 1013.9 0.0
01/05:30pm 11.2 4.0 5.1 66 2.8 W 32 39 17 21 1013.9 1013.7 0.0
01/05:17pm 10.1 0.7 4.3 67 2.6 W 43 48 23 26 1013.8 1013.6 0.0
01/05:00pm 10.2 0.5 4.1 66 2.7 SW 44 63 24 34 1013.5 1013.2 0.0
01/04:54pm 9.9 -1.5 4.7 70 2.4 SSW 54 63 29 34 1013.3 1013.0 0.0
01/04:30pm 13.5 4.6 3.3 50 4.6 WSW 39 48 21 26 1012.5 1012.2 0.0
01/04:00pm 13.6 5.1 3.4 50 4.6 W 37 46 20 25 1012.2 1011.9 0.0
01/03:30pm 14.2 3.3 1.5 42 5.6 WSW 48 67 26 36 1012.0 1011.7 0.0
01/03:00pm 14.2 2.9 1.2 41 5.7 WSW 50 69 27 37 1011.5 1011.2 0.0
01/02:43pm 14.1 3.0 2.7 46 5.1 WSW 50 69 27 37 1011.3 1011.0 0.0
01/02:30pm 14.0 2.8 2.0 44 5.3 WSW 50 63 27 34 1011.3 1011.0 0.0
01/02:19pm 13.5 3.3 3.0 49 4.7 WSW 46 67 25 36 1011.1 1010.8 0.0
01/02:00pm 12.6 3.7 3.3 53 4.2 WSW 39 50 21 27 1011.1 1010.8 0.0
01/01:38pm 10.1 -1.6 3.6 64 2.9 WSW 54 74 29 40 1011.2 1010.9 0.0
01/01:36pm 10.0 -2.6 3.5 64 2.9 WSW 59 74 32 40 1011.0 1010.7 0.0
01/01:34pm 10.9 3.3 3.9 62 3.1 WSW 33 57 18 31 1010.7 1010.5 0.0
01/01:30pm 12.0 5.6 5.4 64 3.1 WSW 28 44 15 24 1010.5 1010.3 0.0
01/01:02pm 11.2 2.2 4.4 63 3.1 WSW 41 65 22 35 1010.2 1010.0 0.0
01/01:00pm 12.2 3.3 2.9 53 4.1 WSW 39 54 21 29 1010.1 1009.9 0.0
01/12:30pm 12.2 6.0 7.9 75 2.1 WSW 30 43 16 23 1010.0 1009.7 0.0
01/12:11pm 10.1 3.4 7.5 84 1.3 W 32 44 17 24 1010.0 1009.7 0.0
01/12:00pm 8.1 -1.2 5.7 85 1.1 W 44 69 24 37 1010.0 1009.7 0.0
01/11:56am 8.0 -2.6 5.1 82 1.3 WSW 50 78 27 42 1009.8 1009.5 0.0
01/11:49am 12.3 3.5 5.7 64 3.1 WSW 41 72 22 39 1009.3 1009.0 0.0
01/11:45am 12.1 3.9 5.0 62 3.3 WSW 37 48 20 26 1009.1 1008.8 0.0
01/11:31am 12.8 5.3 6.4 65 3.1 SW 35 44 19 24 1009.2 1008.9 0.0
01/11:30am 12.8 4.6 6.4 65 3.1 WSW 39 54 21 29 1009.2 1008.9 0.0
01/11:00am 11.7 4.1 5.8 67 2.8 W 35 44 19 24 1008.7 1008.4 0.0
01/10:30am 9.6 1.2 5.8 77 1.8 W 39 57 21 31 1008.4 1008.4 0.0
01/10:11am 11.5 4.5 6.8 73 2.3 WSW 33 52 18 28 1008.0 1007.9 0.0
01/10:00am 11.2 4.6 7.7 79 1.7 W 32 44 17 24 1007.9 1007.8 0.0
01/09:30am 9.2 1.9 7.2 87 1.0 WSW 35 56 19 30 1007.5 1007.4 0.0
01/09:24am 9.7 2.9 7.5 86 1.1 WSW 33 56 18 30 1007.4 1007.3 0.0
01/09:00am 10.4 3.7 8.2 86 1.1 WSW 33 41 18 22 1007.0 1006.9 3.0
01/08:30am 9.3 3.8 7.7 90 0.8 W 26 39 14 21 1006.3 1006.3 -
01/08:00am 9.3 3.8 7.6 89 0.8 W 26 39 14 21 1005.9 1005.9 -
01/07:30am 9.3 6.1 8.4 94 0.4 W 15 22 8 12 1005.3 1005.3 -
01/07:01am 9.1 4.6 8.6 97 0.2 W 22 30 12 16 1005.2 1005.2 -
01/07:00am 9.1 4.6 8.6 97 0.2 W 22 30 12 16 1005.2 1005.2 -
01/06:33am 9.5 4.8 9.4 99 0.1 W 24 32 13 17 1004.5 1004.4 -
01/06:30am 9.6 5.0 9.5 99 0.1 W 24 32 13 17 1004.5 1004.4 -
01/06:00am 9.6 4.6 9.5 99 0.1 WSW 26 37 14 20 1003.8 1003.7 -
01/05:57am 9.6 4.6 9.5 99 0.1 WSW 26 33 14 18 1003.8 1003.7 -
01/05:48am 9.7 3.6 9.6 99 0.1 WSW 32 41 17 22 1003.6 1003.5 -
01/05:30am 10.3 3.3 10.1 99 0.1 WSW 37 50 20 27 1003.3 1003.2 -
01/05:27am 10.2 3.2 10.0 99 0.1 WSW 37 50 20 27 1003.2 1003.1 -
01/05:00am 10.8 6.8 10.6 99 0.1 W 22 32 12 17 1002.5 1002.4 -
01/04:35am 11.4 7.2 11.1 98 0.2 W 24 33 13 18 1002.0 1002.0 -
01/04:30am 11.5 7.3 11.2 98 0.2 WNW 24 33 13 18 1001.9 1001.9 -
01/04:00am 11.5 7.7 11.0 97 0.3 W 22 32 12 17 1001.5 1001.5 -
01/03:30am 11.6 8.2 11.1 97 0.3 W 20 30 11 16 1001.3 1001.3 -
01/03:00am 11.6 7.5 11.3 98 0.2 W 24 33 13 18 1001.0 1000.9 -
01/02:50am 11.6 7.8 11.3 98 0.2 W 22 32 12 17 1000.9 1000.8 -
01/02:30am 11.7 - 11.4 98 0.2 - - - - - 1001.1 1001.0 -
01/02:08am 11.8 8.5 11.5 98 0.2 WNW 20 26 11 14 1001.4 1001.4 1.4
01/02:00am 11.9 8.8 11.6 98 0.2 W 19 28 10 15 1001.4 1001.4 1.4
01/01:30am 12.4 10.5 11.9 97 0.3 WNW 13 17 7 9 1001.2 1001.1 1.4
01/01:00am 12.7 10.8 11.9 95 0.4 NW 13 17 7 9 1001.6 1001.6 0.8
01/12:30am 12.9 10.2 11.8 93 0.6 W 17 22 9 12 1001.8 1001.8 0.4
01/12:00am 13.5 10.6 12.2 92 0.7 WSW 19 24 10 13 1002.5 1002.4 0.0
 
Date/Time
EDT
Temp
°C
App
Temp
°C
Dew
Point
Rel
Hum
%
Delta-T
°C
Wind Press
QNH
hPa
Press
MSL
hPa
Rain
since 9 am
mm
Dir
 
Spd
km/h
Gust
km/h
Spd
kts
Gust
kts
31/11:30pm 13.8 11.0 12.7 93 0.6 WSW 19 24 10 13 1002.4 1002.3 0.0
31/11:00pm 14.1 10.4 12.7 91 0.8 WSW 24 30 13 16 1002.5 1002.4 0.0
31/10:30pm 15.0 12.0 12.7 86 1.3 WSW 20 28 11 15 1002.4 1002.3 0.0
31/10:00pm 15.7 12.7 12.5 81 1.8 WSW 20 26 11 14 1001.5 1001.5 0.0
31/09:30pm 17.4 11.7 11.9 70 3.0 W 33 43 18 23 1001.6 1001.6 0.0
31/09:02pm 20.8 14.4 8.4 45 6.6 WSW 32 50 17 27 999.7 999.6 0.0
31/09:00pm 20.9 14.2 8.2 44 6.7 WSW 33 50 18 27 999.7 999.6 0.0
31/08:53pm 21.7 15.9 7.9 41 7.3 WSW 28 46 15 25 999.7 999.6 0.0
31/08:30pm 22.6 18.3 6.8 36 8.2 W 19 28 10 15 998.9 998.8 0.0
31/08:00pm 23.8 17.8 7.0 34 8.9 WSW 28 39 15 21 998.6 998.5 0.0
31/07:41pm 25.7 19.4 7.3 31 9.8 W 30 48 16 26 998.2 998.1 0.0
31/07:30pm 27.7 23.2 5.9 25 11.5 W 19 28 10 15 997.9 997.8 0.0
31/07:00pm 28.8 22.7 5.0 22 12.5 W 26 35 14 19 997.5 997.4 0.0
31/06:30pm 30.5 25.1 6.4 22 13.0 WNW 24 37 13 20 997.6 997.5 0.0
31/06:00pm 31.2 24.1 6.3 21 13.6 WNW 33 43 18 23 998.0 997.9 0.0
31/05:30pm 31.2 22.6 4.9 19 13.9 NW 39 50 21 27 998.3 998.2 0.0
31/05:00pm 30.6 23.1 4.4 19 13.8 NW 33 46 18 25 998.8 998.7 0.0
31/04:30pm 31.5 25.6 5.8 20 13.8 NW 26 37 14 20 999.3 999.2 0.0
31/04:00pm 30.4 21.8 4.9 20 13.5 NW 39 50 21 27 999.9 999.8 0.0
31/03:52pm 32.0 25.0 6.2 20 14.0 NW 32 50 17 27 1000.1 1000.0 0.0
31/03:30pm 29.4 21.7 5.5 22 12.6 NW 35 50 19 27 1000.7 1000.6 0.0
31/03:00pm 29.1 21.0 5.2 22 12.6 NNW 37 52 20 28 1001.4 1001.4 0.0
31/02:30pm 29.4 21.4 5.5 22 12.6 NNW 37 50 20 27 1001.9 1001.9 0.0
31/02:02pm 28.8 20.6 5.0 22 12.4 NNW 37 56 20 30 1002.6 1002.5 0.0
31/02:00pm 29.0 21.8 5.8 23 12.4 NNW 33 46 18 25 1002.6 1002.5 0.0
31/01:30pm 27.7 19.0 5.9 25 11.5 NNW 41 54 22 29 1003.0 1002.9 0.0
31/01:00pm 26.8 18.5 6.2 27 10.9 NNW 39 50 21 27 1003.8 1003.7 0.0
31/12:30pm 26.8 18.3 6.8 28 10.7 N 41 54 22 29 1004.3 1004.2 0.0
31/12:00pm 26.6 17.2 5.5 26 11.0 N 44 57 24 31 1004.8 1004.7 0.0
31/11:30am 25.5 16.9 8.1 33 9.4 N 43 57 23 31 1005.0 1005.0 0.0
31/11:04am 23.5 17.3 9.5 41 7.7 N 32 50 17 27 1005.6 1005.6 0.0
31/11:00am 22.6 15.9 9.7 44 7.1 N 35 50 19 27 1005.8 1005.8 0.0
31/10:30am 22.3 16.2 8.1 40 7.5 N 30 44 16 24 1006.1 1006.1 0.0
31/10:00am 20.4 13.8 7.7 44 6.6 N 32 43 17 23 1006.8 1006.7 0.0
31/09:30am 20.0 14.9 7.7 45 6.4 N 24 33 13 18 1007.1 1007.0 0.0
31/09:00am 17.1 13.1 9.0 59 4.3 N 20 28 11 15 1007.3 1007.2 0.0
31/08:30am 15.5 12.1 9.0 65 3.4 N 17 24 9 13 1007.6 1007.5 0.0
31/08:00am 12.7 10.3 11.3 91 0.7 NNE 15 20 8 11 1008.0 1007.9 0.0
31/07:30am 11.6 10.0 11.4 99 0.1 NNE 11 15 6 8 1008.1 1008.0 0.0
31/07:00am 10.4 8.8 10.2 99 0.1 N 9 13 5 7 1008.6 1008.6 0.0
31/06:30am 9.7 7.2 9.6 99 0.1 NNE 13 15 7 8 1008.6 1008.6 0.0
31/06:00am 9.1 7.2 9.0 99 0.0 NNE 9 13 5 7 1008.7 1008.7 0.0
31/05:30am 8.9 6.5 8.8 99 0.0 NNE 11 13 6 7 1009.0 1009.0 0.0
31/05:00am 8.0 5.8 7.9 99 0.0 NNE 9 13 5 7 1009.3 1009.3 0.0
31/04:30am 7.9 4.5 7.8 99 0.0 NNE 15 17 8 9 1009.9 1009.9 0.0
31/04:00am 7.6 4.6 7.5 99 0.0 NE 13 15 7 8 1010.2 1010.2 0.0
31/03:30am 6.6 4.1 6.5 99 0.0 ENE 9 11 5 6 1010.5 1010.5 0.0
31/03:00am 6.5 3.6 6.4 99 0.0 E 11 13 6 7 1010.6 1010.6 0.0
31/02:30am 6.8 3.6 6.7 99 0.0 ESE 13 15 7 8 1011.2 1011.1 0.0
31/02:00am 7.4 4.3 7.3 99 0.0 SE 13 15 7 8 1011.8 1011.7 0.0
31/01:30am 8.4 4.8 8.3 99 0.0 E 17 19 9 10 1012.3 1012.3 0.0
31/01:00am 8.6 5.4 8.5 99 0.0 E 15 17 8 9 1012.8 1012.8 0.0
31/12:30am 8.5 4.9 8.4 99 0.0 ENE 17 20 9 11 1013.1 1013.1 0.0
31/12:00am 6.7 3.8 6.4 98 0.1 ESE 11 13 6 7 1013.7 1013.7 0.0
 
Date/Time
EDT
Temp
°C
App
Temp
°C
Dew
Point
Rel
Hum
%
Delta-T
°C
Wind Press
QNH
hPa
Press
MSL
hPa
Rain
since 9 am
mm
Dir
 
Spd
km/h
Gust
km/h
Spd
kts
Gust
kts
30/11:30pm 7.7 4.6 7.4 98 0.1 SE 13 13 7 7 1014.2 1014.2 0.0
30/11:00pm 8.3 6.1 7.9 97 0.2 SSE 9 11 5 6 1014.5 1014.5 0.0
30/10:30pm 8.7 5.8 8.1 96 0.3 SE 13 13 7 7 1014.3 1014.3 0.0
30/10:00pm 10.0 7.0 9.2 95 0.4 SE 15 19 8 10 1014.2 1014.2 0.0
30/09:30pm 10.5 7.5 9.4 93 0.6 SE 15 19 8 10 1013.9 1013.9 0.0
30/09:00pm 11.5 8.3 9.8 89 0.9 SE 17 20 9 11 1013.6 1013.6 0.0
30/08:30pm 14.4 12.7 9.8 74 2.4 S 9 11 5 6 1013.3 1013.3 0.0
30/08:00pm 16.4 14.8 10.3 67 3.3 S 9 11 5 6 1013.0 1013.0 0.0
30/07:30pm 18.7 17.6 10.5 59 4.5 WSW 7 9 4 5 1012.9 1012.9 0.0
30/07:00pm 19.5 18.0 10.5 56 4.9 SW 9 13 5 7 1012.8 1012.8 0.0
30/06:30pm 19.9 18.3 10.3 54 5.2 SW 9 13 5 7 1012.6 1012.6 0.0
30/06:00pm 19.9 17.1 10.0 53 5.4 W 15 20 8 11 1012.8 1012.8 0.0
30/05:30pm 20.0 16.8 10.1 53 5.4 WSW 17 24 9 13 1013.2 1013.2 0.0
30/05:00pm 20.0 17.7 10.4 54 5.3 WSW 13 22 7 12 1013.3 1013.3 0.0
30/04:30pm 20.0 17.2 9.9 52 5.5 NW 15 22 8 12 1013.5 1013.5 0.0
30/04:00pm 20.0 16.8 10.1 53 5.4 W 17 24 9 13 1013.7 1013.7 0.0
30/03:30pm 19.1 15.9 10.1 56 4.9 W 17 26 9 14 1014.0 1014.0 0.0
30/03:00pm 18.5 15.8 10.3 59 4.4 SW 15 19 8 10 1014.4 1014.4 0.0
30/02:30pm 18.5 15.3 9.8 57 4.7 WNW 17 24 9 13 1014.5 1014.5 0.0
30/02:00pm 17.9 14.6 10.8 63 3.9 WSW 19 28 10 15 1014.7 1014.7 0.0
30/01:30pm 17.7 14.4 9.6 59 4.3 W 17 28 9 15 1014.8 1014.8 0.0
30/01:00pm 17.4 13.7 9.6 60 4.1 W 19 26 10 14 1015.0 1015.0 0.0
30/12:30pm 16.3 11.5 9.0 62 3.8 NW 24 33 13 18 1015.5 1015.5 0.0
30/12:00pm 15.8 12.1 9.5 66 3.3 WNW 19 28 10 15 1015.8 1015.8 0.0
30/11:30am 15.4 12.0 9.3 67 3.2 NW 17 24 9 13 1016.0 1016.0 0.0
30/11:00am 14.6 11.4 8.5 67 3.1 W 15 24 8 13 1016.3 1016.3 0.0
30/10:30am 14.3 10.7 8.5 68 3.0 WNW 17 26 9 14 1016.3 1016.3 0.0
30/10:00am 13.6 10.3 8.0 69 2.8 W 15 22 8 12 1016.3 1016.3 0.0
30/09:30am 13.2 9.9 8.1 71 2.6 WNW 15 19 8 10 1016.4 1016.4 0.0
30/09:00am 12.5 9.4 8.8 78 1.9 NW 15 20 8 11 1016.4 1016.4 0.0
30/08:30am 11.4 9.9 10.6 95 0.4 NW 9 13 5 7 1016.3 1016.3 0.0
30/08:00am 10.5 8.9 10.3 99 0.1 NNW 9 13 5 7 1015.8 1015.8 0.0
30/07:30am 9.5 8.1 9.4 99 0.1 NNW 7 9 4 5 1016.0 1016.0 0.0
30/07:00am 8.8 7.8 8.7 99 0.0 N 4 9 2 5 1015.8 1015.8 0.0
30/06:30am 8.3 7.1 8.2 99 0.0 N 4 9 2 5 1015.1 1015.1 0.0
30/06:00am 8.3 7.1 8.2 99 0.0 WSW 4 7 2 4 1015.1 1015.1 0.0
30/05:30am 7.9 5.7 7.8 99 0.0 N 9 11 5 6 1014.8 1014.8 0.0
30/05:00am 7.6 5.3 7.5 99 0.0 N 9 9 5 5 1014.9 1014.9 0.0
30/04:30am 7.9 6.3 7.8 99 0.0 NW 6 7 3 4 1015.3 1015.2 0.0
30/04:00am 8.2 6.6 8.1 99 0.0 WNW 6 7 3 4 1015.4 1015.3 0.0
30/03:30am 7.0 5.1 6.9 99 0.0 W 6 7 3 4 1015.5 1015.5 0.0
30/03:24am 6.6 4.7 6.5 99 0.0 WNW 6 7 3 4 1015.3 1015.2 0.0
30/03:03am 6.5 4.5 6.4 99 0.0 W 6 7 3 4 1015.1 1015.1 0.0
30/03:00am 6.5 4.5 6.4 99 0.0 NW 6 7 3 4 1015.1 1015.1 0.0
30/02:49am 6.9 5.0 6.8 99 0.0 NNW 6 6 3 3 1014.9 1014.9 0.0
30/02:30am 7.6 5.9 7.5 99 0.0 NNW 6 6 3 3 1015.1 1015.1 0.0
30/02:00am 7.1 5.1 7.0 99 0.0 NW 7 9 4 5 1015.5 1015.5 0.0
30/01:35am 7.7 5.8 7.4 98 0.1 NNW 7 7 4 4 1015.8 1015.8 0.0
30/01:30am 7.8 6.1 7.4 97 0.2 NW 6 7 3 4 1015.7 1015.7 0.0
30/01:00am 8.4 6.8 7.8 96 0.3 W 6 7 3 4 1016.2 1016.2 0.0
30/12:30am 8.9 6.8 8.1 95 0.4 W 9 9 5 5 1016.6 1016.6 0.0

Other Formats:

Comma delimited format used in spreadsheet applications
http://www.bom.gov.au/fwo/IDV60801/IDV60801.94829.axf

JavaScript Object Notation format (JSON) in row-major order
http://www.bom.gov.au/fwo/IDV60801/IDV60801.94829.json